createdAt,value
2023-03-27T00:02:10.177Z,1.00
2023-03-27T00:04:43.942Z,2.00
2023-03-27T00:07:19.282Z,0.00
2023-03-27T00:09:50.541Z,0.50
2023-03-27T00:12:34.001Z,0.50
2023-03-27T00:15:19.344Z,0.00
2023-03-27T00:18:00.179Z,0.00
2023-03-27T00:20:41.655Z,0.50
2023-03-27T00:23:26.953Z,0.00
2023-03-27T00:25:59.118Z,0.00
2023-03-27T00:31:33.273Z,0.00
2023-03-27T00:34:14.009Z,0.00
2023-03-27T00:37:02.556Z,0.00
2023-03-27T00:39:52.133Z,0.00
2023-03-27T00:42:28.839Z,0.00
2023-03-27T00:45:00.032Z,0.00
2023-03-27T00:47:40.702Z,0.00
2023-03-27T00:50:19.794Z,0.00
2023-03-27T00:53:26.630Z,0.00
2023-03-27T00:56:03.650Z,0.00
2023-03-27T00:58:42.262Z,0.00
2023-03-27T01:01:19.293Z,0.00
2023-03-27T01:03:54.533Z,0.00
2023-03-27T01:06:23.677Z,0.00
2023-03-27T01:09:02.706Z,0.50
2023-03-27T01:11:51.703Z,0.00
2023-03-27T01:14:40.831Z,1.50
2023-03-27T01:17:36.172Z,1.50
2023-03-27T01:20:52.544Z,1.00
2023-03-27T01:24:22.227Z,0.00
2023-03-27T01:27:06.918Z,0.25
2023-03-27T01:30:18.818Z,1.00
2023-03-27T01:34:03.484Z,0.00
2023-03-27T01:37:25.935Z,0.00
2023-03-27T01:40:11.939Z,1.25
2023-03-27T01:42:51.876Z,3.25
2023-03-27T01:45:37.872Z,0.50
2023-03-27T01:48:18.634Z,1.00
2023-03-27T01:50:56.693Z,0.00
2023-03-27T01:53:35.878Z,1.00
2023-03-27T01:56:15.311Z,2.25
2023-03-27T01:58:57.679Z,1.00
2023-03-27T02:01:38.536Z,0.25
2023-03-27T02:04:17.722Z,1.00
2023-03-27T02:06:59.412Z,1.00
2023-03-27T02:09:53.699Z,1.00
2023-03-27T02:12:38.082Z,1.00
2023-03-27T02:15:24.810Z,0.75
2023-03-27T02:18:12.085Z,1.00
2023-03-27T02:20:44.250Z,1.25
2023-03-27T02:23:16.831Z,1.00
2023-03-27T02:25:55.260Z,2.00
2023-03-27T02:29:14.716Z,1.00
2023-03-27T02:32:09.669Z,1.00
2023-03-27T02:35:19.264Z,0.25
2023-03-27T02:38:05.451Z,1.00
2023-03-27T02:41:10.602Z,1.50
2023-03-27T02:44:19.943Z,1.50
2023-03-27T02:47:12.688Z,2.25
2023-03-27T02:49:56.224Z,3.00
2023-03-27T02:52:38.537Z,3.25
2023-03-27T02:55:17.867Z,2.00
2023-03-27T02:57:56.393Z,4.50
2023-03-27T03:00:41.152Z,4.75
2023-03-27T03:03:39.652Z,0.00
2023-03-27T03:09:47.455Z,1.25
2023-03-27T03:12:18.702Z,2.00
2023-03-27T03:14:49.951Z,3.00
2023-03-27T03:17:24.493Z,2.00
2023-03-27T03:19:58.145Z,4.00
2023-03-27T03:22:36.994Z,1.75
2023-03-27T03:25:23.088Z,2.25
2023-03-27T03:27:55.977Z,3.50
2023-03-27T03:30:27.935Z,3.75
2023-03-27T03:33:14.032Z,2.25
2023-03-27T03:35:54.504Z,2.50
2023-03-27T03:38:43.270Z,5.25
2023-03-27T03:41:25.076Z,2.00
2023-03-27T03:44:12.349Z,2.25
2023-03-27T03:47:04.593Z,6.00
2023-03-27T03:50:12.219Z,3.75
2023-03-27T03:52:48.151Z,2.00
2023-03-27T03:55:25.836Z,4.50
2023-03-27T03:58:21.877Z,3.00
2023-03-27T04:01:10.320Z,5.75
2023-03-27T04:03:45.971Z,6.00
2023-03-27T04:06:20.438Z,4.75
2023-03-27T04:08:55.630Z,6.00
2023-03-27T04:11:56.073Z,4.00
2023-03-27T04:14:42.472Z,4.00
2023-03-27T04:17:36.721Z,3.00
2023-03-27T04:20:18.544Z,1.50
2023-03-27T04:22:57.056Z,3.50
2023-03-27T04:25:28.301Z,1.00
2023-03-27T04:28:30.970Z,6.00
2023-03-27T04:31:11.244Z,3.00
2023-03-27T04:34:14.020Z,2.00
2023-03-27T04:36:49.168Z,4.75
2023-03-27T04:39:43.365Z,3.25
2023-03-27T04:42:15.519Z,1.00
2023-03-27T04:45:28.723Z,2.00
2023-03-27T04:48:22.732Z,3.00
2023-03-27T04:51:11.303Z,5.00
2023-03-27T04:54:05.056Z,7.50
2023-03-27T04:56:50.173Z,2.25
2023-03-27T04:59:31.380Z,3.00
2023-03-27T05:02:29.104Z,2.00
2023-03-27T05:05:09.938Z,3.25
2023-03-27T05:07:45.904Z,2.25
2023-03-27T05:10:21.801Z,1.00
2023-03-27T05:13:01.565Z,4.75
2023-03-27T05:15:46.668Z,4.00
2023-03-27T05:18:22.122Z,1.50
2023-03-27T05:21:08.514Z,1.50
2023-03-27T05:23:50.057Z,2.00
2023-03-27T05:26:29.272Z,3.50
2023-03-27T05:29:03.635Z,5.00
2023-03-27T05:31:39.196Z,5.75
2023-03-27T05:34:30.825Z,2.25
2023-03-27T05:37:06.369Z,1.00
2023-03-27T05:39:50.210Z,2.00
2023-03-27T05:42:27.090Z,1.75
2023-03-27T05:45:18.808Z,2.00
2023-03-27T05:48:02.200Z,2.00
2023-03-27T05:50:58.968Z,1.00
2023-03-27T05:53:47.129Z,2.75
2023-03-27T05:56:24.111Z,2.50
2023-03-27T05:59:06.974Z,1.00
2023-03-27T06:01:43.998Z,2.75
2023-03-27T06:04:22.773Z,2.00
2023-03-27T06:07:09.338Z,1.00
2023-03-27T06:10:28.492Z,2.00
2023-03-27T06:13:42.864Z,1.75
2023-03-27T06:16:42.172Z,1.25
2023-03-27T06:19:29.801Z,2.00
2023-03-27T06:21:57.755Z,2.25
2023-03-27T06:24:42.474Z,2.50
2023-03-27T06:27:48.170Z,2.00
2023-03-27T06:30:30.025Z,2.50
2023-03-27T06:33:21.905Z,2.50
2023-03-27T06:36:09.849Z,3.75
2023-03-27T06:38:57.387Z,1.75
2023-03-27T06:41:28.721Z,3.00
2023-03-27T06:44:34.169Z,1.00
2023-03-27T06:47:44.448Z,3.00
2023-03-27T06:50:30.947Z,1.00
2023-03-27T06:53:19.707Z,1.00
2023-03-27T06:56:03.157Z,0.00
2023-03-27T06:59:11.628Z,1.00
2023-03-27T07:02:03.930Z,0.00
2023-03-27T07:05:16.769Z,3.00
2023-03-27T07:07:49.062Z,0.00
2023-03-27T07:10:43.456Z,0.00
2023-03-27T07:13:18.097Z,0.00
2023-03-27T07:16:13.112Z,0.00
2023-03-27T07:18:49.247Z,1.25
2023-03-27T07:21:17.725Z,0.00
2023-03-27T07:24:05.967Z,0.00
2023-03-27T07:26:46.427Z,0.50
2023-03-27T07:29:29.046Z,0.00
2023-03-27T07:32:08.609Z,0.00
2023-03-27T07:34:55.843Z,4.25
2023-03-27T07:37:39.807Z,7.67
2023-03-27T07:40:48.572Z,1.67
2023-03-27T07:43:49.290Z,0.33
2023-03-27T07:46:21.504Z,0.00
2023-03-27T07:49:01.997Z,0.00
2023-03-27T07:51:43.782Z,0.00
2023-03-27T07:54:24.810Z,0.00
2023-03-27T07:56:56.045Z,0.00
2023-03-27T07:59:38.393Z,1.25
2023-03-27T08:02:30.616Z,0.00
2023-03-27T08:05:19.872Z,0.00
2023-03-27T08:08:07.805Z,1.00
2023-03-27T08:11:19.493Z,0.00
2023-03-27T08:14:19.519Z,5.00
2023-03-27T08:17:12.330Z,0.00
2023-03-27T08:19:59.528Z,1.00
2023-03-27T08:22:28.761Z,0.00
2023-03-27T08:25:24.480Z,0.00
2023-03-27T08:28:05.341Z,0.50
2023-03-27T08:31:09.003Z,0.75
2023-03-27T08:33:50.133Z,0.00
2023-03-27T08:36:34.103Z,0.00
2023-03-27T08:39:31.137Z,0.00
2023-03-27T08:42:31.888Z,0.75
2023-03-27T08:45:22.859Z,0.00
2023-03-27T08:48:21.885Z,0.00
2023-03-27T08:51:08.501Z,0.00
2023-03-27T08:53:59.481Z,1.00
2023-03-27T08:56:31.063Z,0.75
2023-03-27T08:59:25.758Z,4.25
2023-03-27T09:03:03.428Z,0.00
2023-03-27T09:05:56.437Z,0.00
2023-03-27T09:09:02.971Z,3.50
2023-03-27T09:11:57.292Z,0.00
2023-03-27T09:14:53.036Z,0.00
2023-03-27T09:17:34.724Z,0.25
2023-03-27T09:20:30.518Z,0.00
2023-03-27T09:23:21.034Z,1.00
2023-03-27T09:26:29.520Z,0.00
2023-03-27T09:29:40.505Z,0.00
2023-03-27T09:32:47.145Z,0.50
2023-03-27T09:35:27.509Z,1.00
2023-03-27T09:38:23.684Z,0.50
2023-03-27T09:41:16.566Z,0.00
2023-03-27T09:44:11.327Z,0.25
2023-03-27T09:46:59.308Z,0.50
2023-03-27T09:49:28.876Z,0.00
2023-03-27T09:52:07.989Z,0.00
2023-03-27T09:54:59.458Z,5.25
2023-03-27T09:57:44.006Z,0.00
2023-03-27T10:00:31.719Z,1.00
2023-03-27T10:03:16.751Z,0.00
2023-03-27T10:06:09.914Z,0.75
2023-03-27T10:08:59.371Z,0.00
2023-03-27T10:12:23.610Z,0.00
2023-03-27T10:14:56.611Z,1.00
2023-03-27T10:17:42.548Z,0.75
2023-03-27T10:20:27.462Z,0.75
2023-03-27T10:23:10.244Z,1.00
2023-03-27T10:25:55.909Z,0.00
2023-03-27T10:28:43.541Z,0.00
2023-03-27T10:31:36.859Z,0.00
2023-03-27T10:35:04.414Z,0.75
2023-03-27T10:37:51.054Z,0.00
2023-03-27T10:40:57.582Z,0.00
2023-03-27T10:43:49.967Z,0.00
2023-03-27T10:46:36.898Z,0.75
2023-03-27T10:49:36.974Z,0.00
2023-03-27T10:52:38.431Z,1.00
2023-03-27T10:55:48.145Z,0.00
2023-03-27T10:58:31.344Z,0.00
2023-03-27T11:01:19.138Z,0.00
2023-03-27T11:04:02.193Z,0.00
2023-03-27T11:06:53.165Z,0.00
2023-03-27T11:10:05.989Z,0.00
2023-03-27T11:12:56.577Z,0.75
2023-03-27T11:15:43.689Z,0.00
2023-03-27T11:18:43.339Z,0.00
2023-03-27T11:21:32.326Z,0.00
2023-03-27T11:24:16.418Z,0.00
2023-03-27T11:27:12.264Z,0.75
2023-03-27T11:33:32.505Z,0.00
2023-03-27T11:36:34.929Z,0.00
2023-03-27T11:39:43.446Z,0.00
2023-03-27T11:42:25.328Z,0.00
2023-03-27T11:44:59.442Z,0.00
2023-03-27T11:48:16.613Z,0.00
2023-03-27T11:51:10.922Z,1.75
2023-03-27T11:54:31.702Z,1.00
2023-03-27T11:57:31.863Z,0.00
2023-03-27T12:00:25.103Z,0.00
2023-03-27T12:03:45.764Z,0.00
2023-03-27T12:07:03.981Z,1.00
2023-03-27T12:10:12.370Z,0.25
2023-03-27T12:13:58.232Z,0.00
2023-03-27T12:17:18.250Z,0.00
2023-03-27T12:20:52.889Z,0.00
2023-03-27T12:24:03.046Z,1.00
2023-03-27T12:27:43.548Z,0.50
2023-03-27T12:31:09.028Z,0.25
2023-03-27T12:34:00.393Z,0.00
2023-03-27T12:36:40.348Z,0.00
2023-03-27T12:39:30.105Z,0.00
2023-03-27T12:42:43.954Z,0.50
2023-03-27T12:45:22.392Z,2.00
2023-03-27T12:48:23.814Z,1.75
2023-03-27T12:51:01.246Z,2.00
2023-03-27T12:53:58.849Z,3.00
2023-03-27T12:56:59.773Z,1.00
2023-03-27T12:59:33.702Z,3.00
2023-03-27T13:02:48.024Z,1.75
2023-03-27T13:05:57.614Z,1.50
2023-03-27T13:09:17.312Z,3.50
2023-03-27T13:12:48.569Z,2.75
2023-03-27T13:16:06.442Z,4.00
2023-03-27T13:19:31.016Z,3.25
2023-03-27T13:22:52.593Z,3.00
2023-03-27T13:26:03.019Z,3.00
2023-03-27T13:28:49.612Z,3.50
2023-03-27T13:32:25.617Z,1.00
2023-03-27T13:35:41.420Z,3.50
2023-03-27T13:38:14.117Z,4.50
2023-03-27T13:41:55.304Z,2.00
2023-03-27T13:45:05.256Z,3.00
2023-03-27T13:48:40.413Z,3.25
2023-03-27T13:51:53.956Z,1.00
2023-03-27T13:55:31.529Z,3.00
2023-03-27T13:59:14.966Z,1.00
2023-03-27T14:02:14.481Z,1.00
2023-03-27T14:05:20.353Z,2.50
2023-03-27T14:08:19.331Z,0.50
2023-03-27T14:11:48.108Z,3.00
2023-03-27T14:15:06.970Z,3.50
2023-03-27T14:18:19.845Z,0.75
2023-03-27T14:21:01.071Z,0.00
2023-03-27T14:23:53.250Z,0.75
2023-03-27T14:26:47.023Z,0.25
2023-03-27T14:29:19.899Z,1.00
2023-03-27T14:31:52.782Z,1.00
2023-03-27T14:34:37.613Z,2.00
2023-03-27T14:37:40.213Z,1.50
2023-03-27T14:40:27.912Z,2.00
2023-03-27T14:43:05.536Z,3.00
2023-03-27T14:45:43.994Z,3.00
2023-03-27T14:48:24.640Z,0.00
2023-03-27T14:51:01.810Z,0.00
2023-03-27T14:53:47.155Z,0.00
2023-03-27T14:56:47.601Z,0.00
2023-03-27T14:59:43.239Z,0.00
2023-03-27T15:02:36.720Z,0.00
2023-03-27T15:05:19.435Z,0.00
2023-03-27T15:08:03.373Z,0.00
2023-03-27T15:10:52.606Z,0.00
2023-03-27T15:13:41.265Z,1.75
2023-03-27T15:16:26.401Z,0.00
2023-03-27T15:19:05.891Z,0.00
2023-03-27T15:21:50.763Z,1.00
2023-03-27T15:24:34.440Z,0.00
2023-03-27T15:27:21.819Z,0.00
2023-03-27T15:30:29.730Z,1.00
2023-03-27T15:33:14.138Z,2.75
2023-03-27T15:35:49.362Z,12.75
2023-03-27T15:38:32.135Z,2.00
2023-03-27T15:41:40.677Z,1.00
2023-03-27T15:44:18.922Z,1.00
2023-03-27T15:46:59.805Z,2.00
2023-03-27T15:49:40.404Z,5.50
2023-03-27T15:52:34.609Z,3.00
2023-03-27T15:55:39.325Z,3.00
2023-03-27T15:58:36.812Z,2.00
2023-03-27T16:01:18.085Z,4.50
2023-03-27T16:04:04.522Z,3.00
2023-03-27T16:06:43.814Z,2.50
2023-03-27T16:09:31.531Z,1.00
2023-03-27T16:12:15.373Z,2.00
2023-03-27T16:14:54.206Z,2.00
2023-03-27T16:17:45.567Z,5.75
2023-03-27T16:20:46.876Z,4.75
2023-03-27T16:23:20.584Z,6.75
2023-03-27T16:25:52.669Z,18.00
2023-03-27T16:28:42.719Z,3.00
2023-03-27T16:31:23.588Z,3.75
2023-03-27T16:33:51.891Z,3.50
2023-03-27T16:36:32.539Z,5.25
2023-03-27T16:39:01.020Z,26.00
2023-03-27T16:41:34.121Z,23.50
2023-03-27T16:44:05.149Z,12.00
2023-03-27T16:46:36.046Z,6.25
2023-03-27T16:49:08.868Z,14.25
2023-03-27T16:51:49.844Z,17.00
2023-03-27T16:54:25.300Z,16.25
2023-03-27T16:57:09.395Z,20.00
2023-03-27T16:59:44.999Z,25.00
2023-03-27T17:02:18.180Z,20.25
2023-03-27T17:05:09.611Z,23.50
2023-03-27T17:07:47.472Z,20.75
2023-03-27T17:10:20.813Z,10.75
2023-03-27T17:12:53.478Z,59.67
2023-03-27T17:15:30.635Z,26.25
2023-03-27T17:17:59.251Z,30.25
2023-03-27T17:20:34.992Z,14.75
2023-03-27T17:23:05.318Z,21.50
2023-03-27T17:25:39.471Z,25.00
2023-03-27T17:28:15.293Z,35.75
2023-03-27T17:30:57.048Z,15.25
2023-03-27T17:33:32.086Z,5.75
2023-03-27T17:36:14.618Z,9.75
2023-03-27T17:38:53.669Z,2.00
2023-03-27T17:41:36.480Z,3.50
2023-03-27T17:44:28.925Z,3.25
2023-03-27T17:46:57.481Z,2.75
2023-03-27T17:49:32.946Z,8.00
2023-03-27T17:52:06.328Z,14.00
2023-03-27T17:54:44.914Z,9.25
2023-03-27T17:57:37.951Z,8.00
2023-03-27T18:00:14.191Z,10.25
2023-03-27T18:02:50.124Z,10.25
2023-03-27T18:05:26.095Z,13.50
2023-03-27T18:07:54.472Z,11.25
2023-03-27T18:10:30.248Z,3.00
2023-03-27T18:13:24.191Z,5.50
2023-03-27T18:15:59.866Z,2.50
2023-03-27T18:18:34.889Z,3.00
2023-03-27T18:21:11.152Z,2.25
2023-03-27T18:23:53.925Z,3.50
2023-03-27T18:26:46.107Z,8.25
2023-03-27T18:29:24.207Z,12.25
2023-03-27T18:32:19.216Z,25.75
2023-03-27T18:34:53.267Z,14.75
2023-03-27T18:37:23.852Z,5.00
2023-03-27T18:39:55.898Z,8.50
2023-03-27T18:42:31.425Z,11.50
2023-03-27T18:45:02.093Z,12.25
2023-03-27T18:47:33.352Z,7.00
2023-03-27T18:50:09.905Z,8.00
2023-03-27T18:52:41.865Z,5.75
2023-03-27T18:55:20.482Z,4.25
2023-03-27T18:57:52.551Z,3.25
2023-03-27T19:00:24.920Z,3.75
2023-03-27T19:03:12.165Z,4.00
2023-03-27T19:05:59.868Z,5.50
2023-03-27T19:08:40.738Z,7.50
2023-03-27T19:11:20.696Z,12.50
2023-03-27T19:14:27.345Z,11.00
2023-03-27T19:17:16.163Z,13.50
2023-03-27T19:20:11.132Z,7.50
2023-03-27T19:23:10.563Z,11.25
2023-03-27T19:25:49.467Z,14.00
2023-03-27T19:28:19.781Z,5.50
2023-03-27T19:30:53.597Z,12.00
2023-03-27T19:33:26.473Z,11.00
2023-03-27T19:36:07.363Z,7.00
2023-03-27T19:38:38.747Z,5.00
2023-03-27T19:41:26.448Z,6.00
2023-03-27T19:44:00.941Z,5.25
2023-03-27T19:46:36.842Z,8.25
2023-03-27T19:49:07.436Z,9.00
2023-03-27T19:51:52.294Z,7.00
2023-03-27T19:54:25.618Z,6.00
2023-03-27T19:56:53.597Z,4.00
2023-03-27T19:59:30.516Z,5.50
2023-03-27T20:02:14.967Z,7.00
2023-03-27T20:05:01.188Z,3.00
2023-03-27T20:07:39.656Z,3.00
2023-03-27T20:10:17.905Z,2.00
2023-03-27T20:13:06.220Z,2.00
2023-03-27T20:15:39.776Z,2.00
2023-03-27T20:18:08.939Z,2.50
2023-03-27T20:20:38.344Z,3.00
2023-03-27T20:23:06.964Z,3.00
2023-03-27T20:25:34.345Z,3.00
2023-03-27T20:28:02.422Z,3.00
2023-03-27T20:30:36.935Z,4.25
2023-03-27T20:33:08.067Z,3.00
2023-03-27T20:35:35.948Z,3.25
2023-03-27T20:38:03.578Z,2.00
2023-03-27T20:40:39.552Z,2.25
2023-03-27T20:43:13.880Z,4.50
2023-03-27T20:45:41.493Z,3.75
2023-03-27T20:48:10.470Z,2.00
2023-03-27T20:50:38.739Z,2.25
2023-03-27T20:53:05.829Z,1.00
2023-03-27T20:55:37.250Z,2.00
2023-03-27T20:58:06.543Z,2.00
2023-03-27T21:00:35.249Z,3.00
2023-03-27T21:03:02.561Z,1.50
2023-03-27T21:05:31.789Z,2.50
2023-03-27T21:07:58.663Z,2.00
2023-03-27T21:10:25.870Z,3.00
2023-03-27T21:12:52.767Z,4.25
2023-03-27T21:15:19.916Z,5.00
2023-03-27T21:17:46.736Z,4.00
2023-03-27T21:20:13.668Z,5.75
2023-03-27T21:22:42.123Z,4.50
2023-03-27T21:25:09.510Z,5.50
2023-03-27T21:27:36.898Z,6.00
2023-03-27T21:30:06.344Z,5.00
2023-03-27T21:32:33.111Z,4.00
2023-03-27T21:35:00.177Z,4.25
2023-03-27T21:37:27.119Z,2.00
2023-03-27T21:39:55.404Z,3.25
2023-03-27T21:42:22.500Z,5.25
2023-03-27T21:44:53.154Z,4.00
2023-03-27T21:47:20.860Z,2.75
2023-03-27T21:49:47.769Z,3.50
2023-03-27T21:52:14.700Z,3.00
2023-03-27T21:54:47.394Z,3.25
2023-03-27T21:57:26.790Z,4.00
2023-03-27T21:59:53.762Z,6.25
2023-03-27T22:02:20.490Z,4.25
2023-03-27T22:04:47.296Z,4.00
2023-03-27T22:07:14.156Z,4.75
2023-03-27T22:09:43.963Z,2.00
2023-03-27T22:12:11.132Z,4.25
2023-03-27T22:14:39.532Z,4.00
2023-03-27T22:17:06.451Z,3.00
2023-03-27T22:19:33.242Z,2.75
2023-03-27T22:22:00.250Z,4.50
2023-03-27T22:24:28.005Z,4.75
2023-03-27T22:26:55.584Z,3.00
2023-03-27T22:29:22.676Z,3.00
2023-03-27T22:31:50.946Z,3.00
2023-03-27T22:34:17.808Z,3.75
2023-03-27T22:36:44.657Z,3.00
2023-03-27T22:39:11.724Z,1.25
2023-03-27T22:41:39.119Z,3.50
2023-03-27T22:44:06.117Z,3.00
2023-03-27T22:46:33.794Z,3.00
2023-03-27T22:49:01.996Z,2.00
2023-03-27T22:51:30.227Z,3.00
2023-03-27T22:53:57.869Z,3.50
2023-03-27T22:56:24.931Z,4.00
2023-03-27T22:58:51.724Z,2.75
2023-03-27T23:01:18.727Z,2.75
2023-03-27T23:03:45.656Z,5.00
2023-03-27T23:06:20.102Z,5.00
2023-03-27T23:08:48.837Z,5.25
2023-03-27T23:11:16.822Z,2.00
2023-03-27T23:13:44.280Z,4.00
2023-03-27T23:16:11.762Z,5.00
2023-03-27T23:18:38.969Z,4.50
2023-03-27T23:21:09.225Z,5.00
2023-03-27T23:23:39.722Z,5.50
2023-03-27T23:26:09.364Z,3.25
2023-03-27T23:28:38.925Z,2.50
2023-03-27T23:31:08.090Z,2.00
2023-03-27T23:33:37.103Z,3.00
2023-03-27T23:36:07.937Z,4.50
2023-03-27T23:38:35.003Z,3.00
2023-03-27T23:41:06.314Z,2.00
2023-03-27T23:43:34.591Z,3.75
2023-03-27T23:46:02.408Z,1.25
2023-03-27T23:48:30.739Z,2.00
2023-03-27T23:50:58.474Z,2.00
2023-03-27T23:53:28.089Z,2.00
2023-03-27T23:55:57.770Z,3.75
2023-03-27T23:58:28.887Z,2.50
